createdAt,value
2018-04-29T00:01:47.087Z,11.93
2018-04-29T00:04:12.936Z,11.97
2018-04-29T00:06:38.769Z,11.96
2018-04-29T00:09:04.650Z,11.83
2018-04-29T00:11:30.522Z,11.93
2018-04-29T00:13:56.365Z,11.92
2018-04-29T00:16:22.267Z,11.94
2018-04-29T00:18:48.134Z,11.81
2018-04-29T00:21:14.021Z,11.69
2018-04-29T00:23:39.945Z,11.67
2018-04-29T00:26:05.805Z,11.75
2018-04-29T00:28:31.680Z,11.73
2018-04-29T00:30:57.525Z,11.74
2018-04-29T00:33:23.370Z,11.72
2018-04-29T00:35:49.281Z,11.71
2018-04-29T00:38:15.108Z,11.82
2018-04-29T00:40:40.960Z,12.01
2018-04-29T00:43:06.834Z,11.89
2018-04-29T00:45:32.704Z,11.95
2018-04-29T00:47:58.568Z,11.98
2018-04-29T00:50:24.440Z,11.97
2018-04-29T00:52:50.313Z,12.10
2018-04-29T00:55:16.198Z,11.93
2018-04-29T00:57:42.112Z,12.02
2018-04-29T01:00:07.976Z,12.12
2018-04-29T01:02:33.853Z,12.05
2018-04-29T01:04:59.705Z,12.00
2018-04-29T01:07:25.544Z,12.01
2018-04-29T01:09:51.429Z,12.02
2018-04-29T01:12:17.308Z,11.99
2018-04-29T01:14:43.201Z,12.07
2018-04-29T01:17:09.048Z,12.06
2018-04-29T01:19:34.934Z,12.09
2018-04-29T01:22:00.805Z,12.04
2018-04-29T01:24:26.656Z,12.07
2018-04-29T01:26:52.568Z,11.98
2018-04-29T01:29:18.400Z,12.00
2018-04-29T01:31:44.269Z,12.18
2018-04-29T01:34:10.156Z,12.20
2018-04-29T01:36:36.043Z,12.31
2018-04-29T01:39:01.941Z,12.38
2018-04-29T01:41:27.829Z,12.42
2018-04-29T01:43:53.677Z,12.45
2018-04-29T01:46:19.541Z,12.42
2018-04-29T01:48:45.389Z,12.35
2018-04-29T01:51:11.235Z,12.35
2018-04-29T01:53:37.058Z,12.39
2018-04-29T01:56:02.917Z,12.45
2018-04-29T01:58:28.823Z,12.38
2018-04-29T02:00:54.663Z,12.29
2018-04-29T02:03:20.509Z,12.29
2018-04-29T02:05:46.360Z,12.25
2018-04-29T02:08:12.239Z,12.21
2018-04-29T02:10:38.112Z,12.05
2018-04-29T02:13:03.965Z,12.16
2018-04-29T02:15:29.810Z,12.15
2018-04-29T02:17:55.690Z,12.10
2018-04-29T02:20:21.513Z,12.10
2018-04-29T02:22:47.379Z,12.13
2018-04-29T02:25:13.285Z,12.12
2018-04-29T02:27:39.122Z,12.09
2018-04-29T02:30:05.024Z,12.10
2018-04-29T02:32:30.881Z,12.09
2018-04-29T02:34:56.766Z,12.15
2018-04-29T02:37:22.655Z,12.11
2018-04-29T02:39:48.593Z,12.19
2018-04-29T02:42:14.447Z,12.20
2018-04-29T02:44:40.292Z,12.17
2018-04-29T02:47:06.141Z,12.14
2018-04-29T02:49:32.018Z,12.19
2018-04-29T02:51:57.900Z,12.10
2018-04-29T02:54:23.776Z,12.12
2018-04-29T02:56:49.655Z,12.16
2018-04-29T02:59:15.506Z,12.10
2018-04-29T03:01:41.371Z,12.15
2018-04-29T03:04:07.234Z,12.17
2018-04-29T03:06:33.136Z,12.18
2018-04-29T03:08:58.980Z,12.17
2018-04-29T03:11:24.872Z,12.09
2018-04-29T03:13:50.725Z,12.16
2018-04-29T03:16:16.632Z,12.22
2018-04-29T03:18:42.530Z,12.15
2018-04-29T03:21:08.365Z,12.23
2018-04-29T03:23:34.216Z,12.24
2018-04-29T03:26:00.049Z,12.27
2018-04-29T03:28:26.012Z,12.25
2018-04-29T03:30:51.866Z,12.26
2018-04-29T03:33:17.722Z,12.24
2018-04-29T03:35:43.601Z,12.23
2018-04-29T03:38:09.484Z,12.13
2018-04-29T03:40:35.322Z,12.14
2018-04-29T03:43:01.181Z,12.20
2018-04-29T03:45:27.112Z,12.22
2018-04-29T03:47:53.024Z,12.23
2018-04-29T03:50:18.930Z,12.08
2018-04-29T03:52:44.818Z,11.87
2018-04-29T03:55:10.645Z,11.88
2018-04-29T03:57:48.916Z,11.79
2018-04-29T04:02:58.781Z,11.78
2018-04-29T04:05:24.604Z,11.72
2018-04-29T04:07:50.452Z,11.72
2018-04-29T04:10:16.371Z,11.78
2018-04-29T04:12:42.245Z,11.81
2018-04-29T04:15:08.125Z,11.81
2018-04-29T04:17:33.991Z,11.82
2018-04-29T04:19:59.866Z,11.76
2018-04-29T04:22:25.765Z,11.86
2018-04-29T04:24:51.597Z,11.86
2018-04-29T04:27:17.456Z,11.84
2018-04-29T04:29:43.361Z,11.89
2018-04-29T04:32:09.173Z,11.95
2018-04-29T04:34:35.044Z,11.94
2018-04-29T04:37:00.892Z,11.96
2018-04-29T04:39:26.741Z,11.84
2018-04-29T04:41:52.615Z,12.02
2018-04-29T04:44:18.438Z,12.00
2018-04-29T04:46:44.300Z,12.03
2018-04-29T04:49:10.177Z,12.08
2018-04-29T04:51:36.038Z,12.11
2018-04-29T04:54:01.885Z,12.05
2018-04-29T04:56:27.812Z,12.10
2018-04-29T04:58:53.657Z,12.03
2018-04-29T05:01:19.509Z,12.04
2018-04-29T05:03:45.369Z,12.12
2018-04-29T05:06:11.249Z,12.24
2018-04-29T05:08:37.102Z,12.13
2018-04-29T05:11:02.952Z,12.10
2018-04-29T05:13:28.834Z,12.25
2018-04-29T05:15:54.712Z,12.35
2018-04-29T05:18:20.565Z,12.46
2018-04-29T05:20:46.383Z,12.65
2018-04-29T05:23:12.244Z,12.94
2018-04-29T05:25:38.108Z,13.08
2018-04-29T05:28:04.017Z,13.30
2018-04-29T05:30:29.868Z,13.51
2018-04-29T05:32:55.721Z,13.63
2018-04-29T05:35:21.624Z,13.84
2018-04-29T05:37:47.442Z,14.08
2018-04-29T05:40:13.308Z,14.20
2018-04-29T05:42:39.141Z,14.32
2018-04-29T05:45:05.064Z,14.40
2018-04-29T05:47:30.931Z,14.55
2018-04-29T05:49:56.810Z,14.62
2018-04-29T05:52:22.679Z,14.81
2018-04-29T05:54:48.528Z,14.82
2018-04-29T05:57:14.333Z,14.88
2018-04-29T05:59:40.204Z,15.01
2018-04-29T06:02:06.060Z,15.25
2018-04-29T06:04:31.893Z,15.12
2018-04-29T06:06:57.713Z,15.07
2018-04-29T06:09:23.592Z,14.90
2018-04-29T06:11:49.429Z,15.08
2018-04-29T06:14:15.292Z,15.10
2018-04-29T06:16:41.169Z,15.06
2018-04-29T06:19:07.009Z,15.25
2018-04-29T06:21:33.680Z,15.53
2018-04-29T06:23:59.557Z,15.73
2018-04-29T06:26:25.485Z,15.87
2018-04-29T06:28:58.286Z,15.90
2018-04-29T06:31:24.157Z,16.16
2018-04-29T06:33:50.027Z,16.19
2018-04-29T06:36:15.912Z,16.72
2018-04-29T06:38:41.793Z,16.97
2018-04-29T06:41:07.675Z,16.74
2018-04-29T06:43:33.569Z,16.73
2018-04-29T06:45:59.421Z,16.77
2018-04-29T06:48:25.277Z,16.84
2018-04-29T06:50:51.133Z,16.84
2018-04-29T06:53:17.037Z,17.53
2018-04-29T06:55:42.909Z,17.87
2018-04-29T06:58:08.784Z,18.04
2018-04-29T07:00:34.661Z,18.27
2018-04-29T07:03:00.594Z,18.52
2018-04-29T07:05:26.445Z,18.33
2018-04-29T07:07:52.316Z,18.29
2018-04-29T07:10:18.256Z,18.70
2018-04-29T07:12:44.108Z,18.69
2018-04-29T07:15:09.981Z,18.94
2018-04-29T07:17:35.852Z,18.93
2018-04-29T07:20:01.763Z,19.18
2018-04-29T07:22:27.593Z,19.43
2018-04-29T07:24:53.453Z,19.20
2018-04-29T07:27:19.345Z,19.26
2018-04-29T07:29:45.230Z,19.13
2018-04-29T07:32:11.105Z,19.21
2018-04-29T07:34:37.028Z,19.52
2018-04-29T07:37:02.884Z,19.63
2018-04-29T07:39:28.693Z,19.76
2018-04-29T07:41:54.557Z,20.30
2018-04-29T07:44:20.424Z,20.00
2018-04-29T07:46:46.283Z,19.81
2018-04-29T07:49:12.411Z,19.99
2018-04-29T07:51:38.304Z,20.03
2018-04-29T07:54:04.182Z,19.79
2018-04-29T07:56:30.033Z,20.21
2018-04-29T07:58:55.881Z,20.53
2018-04-29T08:01:21.740Z,20.66
2018-04-29T08:03:47.632Z,20.30
2018-04-29T08:06:13.508Z,20.36
2018-04-29T08:08:39.372Z,20.26
2018-04-29T08:11:05.229Z,20.63
2018-04-29T08:13:31.067Z,20.51
2018-04-29T08:15:56.913Z,20.78
2018-04-29T08:18:22.750Z,20.79
2018-04-29T08:20:48.620Z,21.01
2018-04-29T08:23:14.536Z,21.34
2018-04-29T08:25:40.397Z,21.46
2018-04-29T08:28:06.269Z,21.30
2018-04-29T08:30:32.156Z,21.32
2018-04-29T08:32:58.018Z,21.90
2018-04-29T08:35:23.873Z,22.17
2018-04-29T08:37:49.726Z,21.92
2018-04-29T08:40:15.619Z,21.89
2018-04-29T08:42:41.514Z,21.84
2018-04-29T08:45:07.400Z,21.87
2018-04-29T08:47:33.291Z,22.21
2018-04-29T08:49:59.128Z,22.76
2018-04-29T08:52:24.972Z,22.95
2018-04-29T08:54:50.943Z,22.98
2018-04-29T08:57:16.731Z,22.93
2018-04-29T08:59:42.591Z,23.10
2018-04-29T09:02:08.452Z,22.92
2018-04-29T09:04:34.289Z,22.86
2018-04-29T09:07:00.132Z,22.37
2018-04-29T09:09:26.025Z,22.60
2018-04-29T09:11:51.910Z,22.42
2018-04-29T09:14:17.847Z,22.91
2018-04-29T09:16:43.828Z,23.11
2018-04-29T09:19:09.688Z,23.00
2018-04-29T09:21:35.525Z,23.08
2018-04-29T09:24:01.402Z,23.27
2018-04-29T09:26:27.275Z,23.39
2018-04-29T09:28:53.160Z,23.36
2018-04-29T09:31:19.016Z,23.47
2018-04-29T09:33:44.864Z,23.22
2018-04-29T09:36:10.772Z,22.94
2018-04-29T09:38:36.621Z,23.43
2018-04-29T09:41:02.506Z,23.44
2018-04-29T09:43:28.498Z,23.59
2018-04-29T09:45:54.228Z,24.12
2018-04-29T09:48:20.107Z,24.38
2018-04-29T09:50:45.991Z,24.14
2018-04-29T09:53:11.828Z,24.03
2018-04-29T09:55:37.706Z,23.66
2018-04-29T09:58:03.584Z,23.76
2018-04-29T10:00:29.457Z,23.94
2018-04-29T10:03:01.426Z,23.94
2018-04-29T10:05:27.280Z,24.16
2018-04-29T10:07:53.114Z,24.20
2018-04-29T10:10:19.095Z,24.38
2018-04-29T10:12:44.971Z,23.93
2018-04-29T10:15:10.838Z,24.46
2018-04-29T10:17:36.732Z,24.80
2018-04-29T10:20:02.657Z,24.85
2018-04-29T10:22:28.508Z,24.64
2018-04-29T10:24:54.381Z,24.73
2018-04-29T10:27:20.262Z,24.95
2018-04-29T10:29:46.093Z,25.17
2018-04-29T10:32:11.994Z,24.83
2018-04-29T10:34:37.872Z,24.67
2018-04-29T10:37:03.736Z,24.99
2018-04-29T10:39:29.569Z,24.67
2018-04-29T10:41:55.417Z,25.08
2018-04-29T10:44:21.239Z,25.14
2018-04-29T10:46:47.107Z,25.31
2018-04-29T10:49:12.961Z,25.47
2018-04-29T10:51:38.823Z,25.47
2018-04-29T10:54:04.661Z,25.36
2018-04-29T10:56:30.517Z,25.26
2018-04-29T10:58:56.393Z,25.72
2018-04-29T11:01:22.241Z,25.32
2018-04-29T11:03:48.104Z,25.57
2018-04-29T11:06:13.994Z,25.70
2018-04-29T11:08:39.887Z,25.98
2018-04-29T11:11:05.740Z,25.95
2018-04-29T11:13:31.624Z,25.71
2018-04-29T11:15:57.492Z,25.96
2018-04-29T11:18:23.377Z,25.72
2018-04-29T11:20:49.252Z,26.10
2018-04-29T11:23:15.200Z,26.00
2018-04-29T11:25:41.057Z,26.68
2018-04-29T11:28:06.924Z,26.71
2018-04-29T11:30:32.764Z,26.58
2018-04-29T11:32:58.613Z,26.92
2018-04-29T11:35:24.472Z,27.20
2018-04-29T11:37:50.370Z,26.26
2018-04-29T11:40:16.298Z,26.51
2018-04-29T11:42:42.159Z,26.03
2018-04-29T11:45:07.989Z,26.92
2018-04-29T11:47:33.854Z,27.38
2018-04-29T11:49:59.688Z,27.52
2018-04-29T11:52:25.564Z,27.47
2018-04-29T11:54:51.417Z,27.67
2018-04-29T11:57:17.304Z,28.02
2018-04-29T11:59:43.176Z,27.40
2018-04-29T12:02:09.047Z,28.05
2018-04-29T12:04:34.977Z,27.86
2018-04-29T12:07:00.920Z,28.07
2018-04-29T12:09:26.862Z,28.16
2018-04-29T12:11:52.724Z,27.90
2018-04-29T12:14:18.576Z,27.82
2018-04-29T12:16:44.436Z,28.31
2018-04-29T12:19:10.292Z,28.78
2018-04-29T12:21:36.153Z,29.03
2018-04-29T12:24:02.033Z,29.44
2018-04-29T12:26:27.955Z,29.62
2018-04-29T12:28:53.786Z,29.69
2018-04-29T12:31:19.673Z,29.47
2018-04-29T12:33:45.587Z,29.42
2018-04-29T12:36:11.474Z,29.10
2018-04-29T12:38:37.344Z,29.56
2018-04-29T12:41:03.222Z,29.49
2018-04-29T12:43:29.053Z,29.62
2018-04-29T12:45:54.924Z,29.38
2018-04-29T12:48:20.773Z,29.46
2018-04-29T12:50:46.652Z,28.77
2018-04-29T12:53:12.483Z,28.12
2018-04-29T12:55:38.377Z,28.78
2018-04-29T12:58:04.287Z,29.11
2018-04-29T13:00:30.168Z,29.36
2018-04-29T13:02:56.044Z,28.90
2018-04-29T13:05:21.909Z,29.63
2018-04-29T13:07:47.759Z,29.95
2018-04-29T13:10:13.629Z,30.26
2018-04-29T13:12:39.504Z,30.72
2018-04-29T13:15:05.373Z,30.59
2018-04-29T13:17:31.252Z,30.60
2018-04-29T13:19:57.117Z,30.61
2018-04-29T13:22:22.960Z,30.06
2018-04-29T13:24:48.821Z,30.59
2018-04-29T13:27:14.681Z,30.12
2018-04-29T13:29:40.612Z,30.35
2018-04-29T13:32:06.414Z,30.45
2018-04-29T13:34:32.281Z,30.68
2018-04-29T13:36:58.181Z,30.35
2018-04-29T13:39:24.069Z,29.43
2018-04-29T13:41:50.004Z,29.93
2018-04-29T13:44:15.854Z,30.06
2018-04-29T13:46:41.770Z,29.90
2018-04-29T13:49:07.676Z,30.09
2018-04-29T13:51:33.580Z,30.40
2018-04-29T13:53:59.460Z,30.98
2018-04-29T13:56:25.316Z,30.73
2018-04-29T13:58:51.230Z,30.63
2018-04-29T14:01:17.051Z,30.61
2018-04-29T14:03:42.933Z,30.48
2018-04-29T14:06:08.770Z,30.19
2018-04-29T14:08:34.620Z,30.34
2018-04-29T14:11:00.448Z,31.09
2018-04-29T14:13:26.301Z,31.08
2018-04-29T14:15:52.178Z,30.09
2018-04-29T14:18:18.050Z,30.90
2018-04-29T14:20:43.901Z,29.02
2018-04-29T14:23:09.773Z,28.22
2018-04-29T14:25:35.617Z,28.24
2018-04-29T14:28:01.437Z,28.02
2018-04-29T14:30:27.330Z,29.18
2018-04-29T14:32:53.226Z,30.02
2018-04-29T14:35:19.096Z,30.60
2018-04-29T14:37:44.978Z,30.60
2018-04-29T14:40:10.838Z,30.55
2018-04-29T14:42:36.677Z,30.21
2018-04-29T14:45:02.577Z,30.82
2018-04-29T14:47:28.463Z,30.77
2018-04-29T14:49:54.356Z,30.67
2018-04-29T14:52:20.248Z,30.45
2018-04-29T14:54:46.124Z,30.45
2018-04-29T14:57:12.068Z,30.82
2018-04-29T14:59:37.912Z,30.44
2018-04-29T15:02:03.804Z,29.96
2018-04-29T15:04:29.768Z,29.78
2018-04-29T15:06:55.649Z,30.91
2018-04-29T15:09:21.549Z,30.73
2018-04-29T15:11:47.431Z,31.05
2018-04-29T15:14:13.327Z,30.91
2018-04-29T15:16:39.154Z,30.37
2018-04-29T15:19:05.026Z,30.43
2018-04-29T15:21:30.964Z,29.90
2018-04-29T15:23:56.855Z,30.30
2018-04-29T15:26:22.736Z,30.99
2018-04-29T15:28:48.581Z,30.38
2018-04-29T15:31:14.632Z,30.72
2018-04-29T15:33:40.468Z,31.02
2018-04-29T15:36:07.133Z,31.18
2018-04-29T15:38:32.995Z,31.64
2018-04-29T15:40:58.924Z,31.63
2018-04-29T15:43:24.785Z,31.94
2018-04-29T15:45:51.256Z,32.11
2018-04-29T15:48:17.101Z,32.19
2018-04-29T15:50:43.024Z,32.22
2018-04-29T15:53:08.877Z,30.78
2018-04-29T15:55:34.754Z,30.95
2018-04-29T15:58:00.700Z,30.20
2018-04-29T16:00:26.493Z,30.00
2018-04-29T16:02:52.404Z,29.12
2018-04-29T16:05:18.257Z,29.06
2018-04-29T16:07:44.099Z,29.03
2018-04-29T16:10:09.962Z,29.12
2018-04-29T16:12:35.809Z,28.93
2018-04-29T16:15:01.673Z,29.23
2018-04-29T16:17:27.556Z,29.81
2018-04-29T16:19:53.417Z,29.29
2018-04-29T16:22:19.293Z,29.14
2018-04-29T16:24:46.108Z,28.64
2018-04-29T16:27:11.973Z,28.64
2018-04-29T16:29:37.848Z,28.10
2018-04-29T16:32:03.701Z,27.73
2018-04-29T16:34:29.578Z,27.33
2018-04-29T16:36:55.470Z,27.08
2018-04-29T16:39:21.355Z,26.95
2018-04-29T16:41:47.211Z,27.36
2018-04-29T16:44:13.085Z,27.39
2018-04-29T16:46:46.057Z,27.02
2018-04-29T16:49:11.921Z,26.78
2018-04-29T16:51:37.784Z,26.60
2018-04-29T16:54:03.729Z,26.58
2018-04-29T16:56:29.574Z,26.84
2018-04-29T16:58:55.394Z,26.66
2018-04-29T17:01:21.301Z,26.57
2018-04-29T17:03:47.148Z,26.27
2018-04-29T17:06:13.022Z,26.31
2018-04-29T17:08:38.885Z,26.23
2018-04-29T17:11:04.743Z,26.54
2018-04-29T17:13:30.617Z,26.21
2018-04-29T17:15:56.469Z,26.32
2018-04-29T17:18:22.341Z,26.53
2018-04-29T17:20:48.185Z,26.41
2018-04-29T17:23:14.075Z,26.30
2018-04-29T17:25:39.969Z,25.99
2018-04-29T17:28:05.841Z,25.87
2018-04-29T17:30:31.696Z,25.78
2018-04-29T17:32:57.576Z,25.87
2018-04-29T17:35:23.553Z,25.69
2018-04-29T17:37:49.437Z,25.71
2018-04-29T17:40:15.317Z,25.60
2018-04-29T17:42:41.174Z,25.47
2018-04-29T17:45:07.080Z,25.39
2018-04-29T17:47:32.936Z,25.26
2018-04-29T17:49:58.815Z,25.20
2018-04-29T17:52:24.681Z,25.09
2018-04-29T17:54:50.501Z,25.09
2018-04-29T17:57:16.360Z,24.95
2018-04-29T17:59:42.211Z,24.84
2018-04-29T18:02:08.076Z,24.77
2018-04-29T18:04:33.953Z,24.71
2018-04-29T18:06:59.847Z,24.72
2018-04-29T18:09:25.712Z,24.48
2018-04-29T18:11:51.587Z,24.29
2018-04-29T18:14:17.445Z,24.38
2018-04-29T18:16:43.324Z,24.20
2018-04-29T18:19:09.161Z,23.88
2018-04-29T18:21:34.997Z,23.91
2018-04-29T18:24:00.876Z,23.67
2018-04-29T18:26:26.745Z,23.49
2018-04-29T18:28:52.625Z,23.44
2018-04-29T18:31:18.476Z,23.35
2018-04-29T18:33:44.306Z,23.24
2018-04-29T18:36:10.215Z,23.15
2018-04-29T18:38:36.125Z,23.06
2018-04-29T18:41:01.950Z,23.04
2018-04-29T18:43:27.864Z,23.09
2018-04-29T18:45:53.725Z,22.95
2018-04-29T18:48:19.645Z,22.89
2018-04-29T18:50:45.694Z,22.73
2018-04-29T18:53:11.421Z,22.72
2018-04-29T18:55:37.270Z,22.53
2018-04-29T18:58:03.134Z,22.48
2018-04-29T19:00:29.021Z,22.37
2018-04-29T19:02:54.882Z,22.26
2018-04-29T19:05:20.755Z,22.27
2018-04-29T19:07:46.591Z,22.19
2018-04-29T19:10:12.456Z,22.12
2018-04-29T19:12:38.337Z,22.13
2018-04-29T19:15:04.227Z,22.16
2018-04-29T19:17:30.164Z,22.21
2018-04-29T19:19:56.026Z,22.18
2018-04-29T19:22:21.860Z,22.10
2018-04-29T19:24:47.706Z,22.01
2018-04-29T19:27:13.571Z,21.88
2018-04-29T19:29:39.421Z,21.93
2018-04-29T19:32:05.272Z,21.81
2018-04-29T19:34:31.129Z,21.84
2018-04-29T19:36:56.985Z,21.73
2018-04-29T19:39:22.833Z,21.80
2018-04-29T19:41:48.702Z,21.76
2018-04-29T19:44:14.561Z,21.72
2018-04-29T19:46:40.632Z,21.74
2018-04-29T19:49:06.477Z,21.65
2018-04-29T19:51:32.355Z,21.58
2018-04-29T19:53:58.234Z,21.50
2018-04-29T19:56:24.137Z,21.42
2018-04-29T19:58:50.004Z,21.40
2018-04-29T20:01:15.879Z,21.47
2018-04-29T20:03:41.722Z,21.51
2018-04-29T20:06:07.556Z,21.58
2018-04-29T20:08:33.394Z,21.41
2018-04-29T20:10:59.235Z,21.54
2018-04-29T20:13:25.144Z,21.57
2018-04-29T20:15:50.999Z,21.56
2018-04-29T20:18:16.860Z,21.60
2018-04-29T20:20:42.726Z,21.55
2018-04-29T20:23:08.581Z,21.48
2018-04-29T20:25:34.436Z,21.32
2018-04-29T20:28:00.305Z,21.35
2018-04-29T20:30:26.179Z,21.30
2018-04-29T20:32:52.101Z,21.06
2018-04-29T20:35:17.955Z,20.98
2018-04-29T20:37:43.849Z,20.93
2018-04-29T20:40:09.745Z,20.89
2018-04-29T20:42:35.591Z,20.85
2018-04-29T20:45:01.473Z,20.78
2018-04-29T20:47:27.345Z,20.76
2018-04-29T20:49:53.201Z,20.62
2018-04-29T20:52:19.069Z,20.70
2018-04-29T20:54:44.980Z,20.58
2018-04-29T20:57:10.864Z,20.48
2018-04-29T20:59:36.751Z,20.40
2018-04-29T21:02:02.662Z,20.33
2018-04-29T21:04:28.520Z,20.17
2018-04-29T21:06:54.372Z,20.20
2018-04-29T21:09:20.228Z,20.04
2018-04-29T21:11:46.116Z,20.04
2018-04-29T21:14:11.978Z,20.01
2018-04-29T21:16:37.812Z,19.99
2018-04-29T21:19:03.649Z,19.93
2018-04-29T21:21:29.478Z,20.00
2018-04-29T21:23:55.340Z,19.99
2018-04-29T21:26:21.213Z,19.89
2018-04-29T21:28:47.105Z,19.76
2018-04-29T21:31:13.111Z,19.70
2018-04-29T21:33:38.999Z,19.65
2018-04-29T21:36:04.950Z,19.55
2018-04-29T21:38:30.816Z,19.45
2018-04-29T21:40:56.715Z,19.35
2018-04-29T21:43:22.622Z,19.28
2018-04-29T21:45:48.482Z,19.24
2018-04-29T21:48:14.341Z,19.28
2018-04-29T21:50:40.308Z,19.25
2018-04-29T21:53:06.208Z,19.23
2018-04-29T21:55:32.072Z,19.20
2018-04-29T21:57:57.926Z,19.13
2018-04-29T22:00:23.785Z,19.07
2018-04-29T22:02:49.649Z,19.03
2018-04-29T22:05:15.491Z,19.07
2018-04-29T22:07:41.405Z,19.04
2018-04-29T22:10:07.358Z,19.00
2018-04-29T22:12:33.225Z,18.86
2018-04-29T22:14:59.131Z,18.72
2018-04-29T22:17:24.990Z,18.78
2018-04-29T22:19:50.852Z,18.89
2018-04-29T22:22:16.721Z,18.98
2018-04-29T22:24:42.594Z,18.93
2018-04-29T22:27:08.481Z,19.01
2018-04-29T22:29:34.354Z,18.96
2018-04-29T22:32:00.182Z,19.02
2018-04-29T22:34:26.028Z,19.05
2018-04-29T22:36:51.881Z,19.00
2018-04-29T22:39:17.736Z,19.05
2018-04-29T22:41:43.617Z,19.04
2018-04-29T22:44:09.500Z,18.99
2018-04-29T22:46:35.358Z,19.05
2018-04-29T22:49:01.240Z,19.18
2018-04-29T22:51:27.115Z,19.15
2018-04-29T22:53:52.988Z,19.05
2018-04-29T22:56:18.849Z,18.91
2018-04-29T22:58:44.690Z,18.81
2018-04-29T23:01:10.581Z,18.68
2018-04-29T23:03:36.434Z,18.61
2018-04-29T23:06:02.337Z,18.59
2018-04-29T23:08:28.220Z,18.46
2018-04-29T23:10:54.101Z,18.44
2018-04-29T23:13:19.989Z,18.33
2018-04-29T23:15:45.830Z,18.31
2018-04-29T23:18:11.704Z,18.11
2018-04-29T23:20:37.577Z,18.02
2018-04-29T23:23:03.468Z,18.08
2018-04-29T23:25:29.331Z,18.32
2018-04-29T23:27:55.179Z,18.31
2018-04-29T23:30:21.027Z,18.07
2018-04-29T23:32:46.884Z,18.04
2018-04-29T23:35:12.738Z,17.97
2018-04-29T23:37:38.604Z,17.71
2018-04-29T23:40:04.450Z,17.52
2018-04-29T23:42:30.300Z,17.05
2018-04-29T23:44:56.169Z,16.68
2018-04-29T23:47:22.041Z,16.63
2018-04-29T23:49:47.881Z,16.60
2018-04-29T23:52:13.739Z,16.41
2018-04-29T23:54:39.592Z,16.36
2018-04-29T23:57:05.484Z,16.54
2018-04-29T23:59:31.357Z,16.67
